sensor_id;sensor_type;location;lat;lon;timestamp;temperature;humidity
45761;DHT22;31471;51.040;14.414;2022-12-18T00:00:57;-3.70;99.90
45761;DHT22;31471;51.040;14.414;2022-12-18T00:03:22;-3.80;99.90
45761;DHT22;31471;51.040;14.414;2022-12-18T00:05:48;-3.80;99.90
45761;DHT22;31471;51.040;14.414;2022-12-18T00:08:15;-3.70;99.90
45761;DHT22;31471;51.040;14.414;2022-12-18T00:10:41;-3.90;99.90
45761;DHT22;31471;51.040;14.414;2022-12-18T00:13:07;-4.00;99.90
45761;DHT22;31471;51.040;14.414;2022-12-18T00:15:33;-4.10;99.90
45761;DHT22;31471;51.040;14.414;2022-12-18T00:17:59;-4.20;99.90
45761;DHT22;31471;51.040;14.414;2022-12-18T00:20:24;-4.40;99.90
45761;DHT22;31471;51.040;14.414;2022-12-18T00:22:51;-4.30;99.90
45761;DHT22;31471;51.040;14.414;2022-12-18T00:25:17;-4.20;99.90
45761;DHT22;31471;51.040;14.414;2022-12-18T00:27:43;-4.10;99.90
45761;DHT22;31471;51.040;14.414;2022-12-18T00:30:08;-4.10;99.90
45761;DHT22;31471;51.040;14.414;2022-12-18T00:32:34;-4.00;99.90
45761;DHT22;31471;51.040;14.414;2022-12-18T00:35:00;-3.90;99.90
45761;DHT22;31471;51.040;14.414;2022-12-18T00:37:25;-3.80;99.90
45761;DHT22;31471;51.040;14.414;2022-12-18T00:39:51;-3.80;99.90
45761;DHT22;31471;51.040;14.414;2022-12-18T00:42:18;-3.80;99.90
45761;DHT22;31471;51.040;14.414;2022-12-18T00:45:03;-3.90;99.90
45761;DHT22;31471;51.040;14.414;2022-12-18T00:47:30;-3.80;99.90
45761;DHT22;31471;51.040;14.414;2022-12-18T00:49:56;-3.80;99.90
45761;DHT22;31471;51.040;14.414;2022-12-18T00:52:21;-3.80;99.90
45761;DHT22;31471;51.040;14.414;2022-12-18T00:54:47;-3.80;99.90
45761;DHT22;31471;51.040;14.414;2022-12-18T00:57:12;-3.80;99.90
45761;DHT22;31471;51.040;14.414;2022-12-18T00:59:38;-3.80;99.90
45761;DHT22;31471;51.040;14.414;2022-12-18T01:02:03;-3.80;99.90
45761;DHT22;31471;51.040;14.414;2022-12-18T01:04:31;-3.90;99.90
45761;DHT22;31471;51.040;14.414;2022-12-18T01:06:56;-3.90;99.90
45761;DHT22;31471;51.040;14.414;2022-12-18T01:09:22;-3.90;99.90
45761;DHT22;31471;51.040;14.414;2022-12-18T01:11:47;-3.80;99.90
45761;DHT22;31471;51.040;14.414;2022-12-18T01:14:13;-3.80;99.90
45761;DHT22;31471;51.040;14.414;2022-12-18T01:16:38;-3.80;99.90
45761;DHT22;31471;51.040;14.414;2022-12-18T01:19:04;-3.80;99.90
45761;DHT22;31471;51.040;14.414;2022-12-18T01:21:29;-3.80;99.90
45761;DHT22;31471;51.040;14.414;2022-12-18T01:23:55;-3.80;99.90
45761;DHT22;31471;51.040;14.414;2022-12-18T01:26:23;-3.70;99.90
45761;DHT22;31471;51.040;14.414;2022-12-18T01:28:49;-3.70;99.90
45761;DHT22;31471;51.040;14.414;2022-12-18T01:33:40;-3.80;99.90
45761;DHT22;31471;51.040;14.414;2022-12-18T01:36:06;-3.90;99.90
45761;DHT22;31471;51.040;14.414;2022-12-18T01:38:32;-3.90;99.90
45761;DHT22;31471;51.040;14.414;2022-12-18T01:40:58;-3.90;99.90
45761;DHT22;31471;51.040;14.414;2022-12-18T01:43:40;-3.70;99.90
45761;DHT22;31471;51.040;14.414;2022-12-18T01:46:06;-3.70;99.90
45761;DHT22;31471;51.040;14.414;2022-12-18T01:48:31;-3.80;99.90
45761;DHT22;31471;51.040;14.414;2022-12-18T01:50:57;-3.80;99.90
45761;DHT22;31471;51.040;14.414;2022-12-18T01:53:22;-3.80;99.90
45761;DHT22;31471;51.040;14.414;2022-12-18T01:55:53;-3.80;99.90
45761;DHT22;31471;51.040;14.414;2022-12-18T01:58:20;-3.80;99.90
45761;DHT22;31471;51.040;14.414;2022-12-18T02:00:48;-3.90;99.90
45761;DHT22;31471;51.040;14.414;2022-12-18T02:03:13;-3.90;99.90
45761;DHT22;31471;51.040;14.414;2022-12-18T02:05:43;-4.00;99.90
45761;DHT22;31471;51.040;14.414;2022-12-18T02:08:14;-4.00;99.90
45761;DHT22;31471;51.040;14.414;2022-12-18T02:10:46;-4.10;99.90
45761;DHT22;31471;51.040;14.414;2022-12-18T02:14:02;-4.10;99.90
45761;DHT22;31471;51.040;14.414;2022-12-18T02:18:30;-4.30;99.90
45761;DHT22;31471;51.040;14.414;2022-12-18T02:28:35;-4.30;99.90
45761;DHT22;31471;51.040;14.414;2022-12-18T02:31:05;-4.20;99.90
45761;DHT22;31471;51.040;14.414;2022-12-18T02:33:31;-4.20;99.90
45761;DHT22;31471;51.040;14.414;2022-12-18T02:35:58;-4.20;99.90
45761;DHT22;31471;51.040;14.414;2022-12-18T02:38:26;-4.10;99.90
45761;DHT22;31471;51.040;14.414;2022-12-18T02:40:53;-4.30;99.90
45761;DHT22;31471;51.040;14.414;2022-12-18T02:43:20;-4.20;99.90
45761;DHT22;31471;51.040;14.414;2022-12-18T02:45:47;-4.10;99.90
45761;DHT22;31471;51.040;14.414;2022-12-18T02:48:13;-4.00;99.90
45761;DHT22;31471;51.040;14.414;2022-12-18T02:51:14;-4.00;99.90
45761;DHT22;31471;51.040;14.414;2022-12-18T02:53:35;-4.00;99.90
45761;DHT22;31471;51.040;14.414;2022-12-18T02:56:15;-4.10;99.90
45761;DHT22;31471;51.040;14.414;2022-12-18T03:01:16;-4.10;99.90
45761;DHT22;31471;51.040;14.414;2022-12-18T03:03:57;-4.10;99.90
45761;DHT22;31471;51.040;14.414;2022-12-18T03:06:27;-4.10;99.90
45761;DHT22;31471;51.040;14.414;2022-12-18T03:08:58;-4.30;99.90
45761;DHT22;31471;51.040;14.414;2022-12-18T03:11:25;-4.30;99.90
45761;DHT22;31471;51.040;14.414;2022-12-18T03:14:11;-4.30;99.90
45761;DHT22;31471;51.040;14.414;2022-12-18T03:16:39;-4.20;99.90
45761;DHT22;31471;51.040;14.414;2022-12-18T03:19:11;-4.30;99.90
45761;DHT22;31471;51.040;14.414;2022-12-18T03:21:42;-4.30;99.90
45761;DHT22;31471;51.040;14.414;2022-12-18T03:24:08;-4.20;99.90
45761;DHT22;31471;51.040;14.414;2022-12-18T03:26:35;-4.10;99.90
45761;DHT22;31471;51.040;14.414;2022-12-18T03:29:04;-4.10;99.90
45761;DHT22;31471;51.040;14.414;2022-12-18T03:31:32;-4.20;99.90
45761;DHT22;31471;51.040;14.414;2022-12-18T03:33:58;-4.30;99.90
45761;DHT22;31471;51.040;14.414;2022-12-18T03:36:32;-4.20;99.90
45761;DHT22;31471;51.040;14.414;2022-12-18T03:38:58;-4.10;99.90
45761;DHT22;31471;51.040;14.414;2022-12-18T03:47:07;-4.20;99.90
45761;DHT22;31471;51.040;14.414;2022-12-18T03:49:40;-4.10;99.90
45761;DHT22;31471;51.040;14.414;2022-12-18T03:54:39;-4.00;99.90
45761;DHT22;31471;51.040;14.414;2022-12-18T03:57:16;-4.10;99.90
45761;DHT22;31471;51.040;14.414;2022-12-18T03:59:43;-4.30;99.90
45761;DHT22;31471;51.040;14.414;2022-12-18T04:02:09;-4.30;99.90
45761;DHT22;31471;51.040;14.414;2022-12-18T04:04:36;-4.10;99.90
45761;DHT22;31471;51.040;14.414;2022-12-18T04:07:03;-4.10;99.90
45761;DHT22;31471;51.040;14.414;2022-12-18T04:09:32;-4.10;99.90
45761;DHT22;31471;51.040;14.414;2022-12-18T04:11:58;-4.30;99.90
45761;DHT22;31471;51.040;14.414;2022-12-18T04:14:24;-4.30;99.90
45761;DHT22;31471;51.040;14.414;2022-12-18T04:16:53;-4.20;99.90
45761;DHT22;31471;51.040;14.414;2022-12-18T04:19:24;-4.20;99.90
45761;DHT22;31471;51.040;14.414;2022-12-18T04:21:51;-4.40;99.90
45761;DHT22;31471;51.040;14.414;2022-12-18T04:24:17;-4.30;99.90
45761;DHT22;31471;51.040;14.414;2022-12-18T04:26:51;-4.30;99.90
45761;DHT22;31471;51.040;14.414;2022-12-18T04:29:22;-4.40;99.90
45761;DHT22;31471;51.040;14.414;2022-12-18T04:31:48;-4.40;99.90
45761;DHT22;31471;51.040;14.414;2022-12-18T04:34:14;-4.40;99.90
45761;DHT22;31471;51.040;14.414;2022-12-18T04:36:46;-4.40;99.90
45761;DHT22;31471;51.040;14.414;2022-12-18T04:39:13;-4.40;99.90
45761;DHT22;31471;51.040;14.414;2022-12-18T04:41:40;-4.40;99.90
45761;DHT22;31471;51.040;14.414;2022-12-18T04:44:07;-4.50;99.90
45761;DHT22;31471;51.040;14.414;2022-12-18T04:46:33;-4.40;99.90
45761;DHT22;31471;51.040;14.414;2022-12-18T04:48:58;-4.50;99.90
45761;DHT22;31471;51.040;14.414;2022-12-18T04:51:24;-4.40;99.90
45761;DHT22;31471;51.040;14.414;2022-12-18T04:53:49;-4.30;99.90
45761;DHT22;31471;51.040;14.414;2022-12-18T04:56:15;-4.40;99.90
45761;DHT22;31471;51.040;14.414;2022-12-18T04:58:41;-4.40;99.90
45761;DHT22;31471;51.040;14.414;2022-12-18T05:01:08;-4.60;99.90
45761;DHT22;31471;51.040;14.414;2022-12-18T05:03:34;-4.60;99.90
45761;DHT22;31471;51.040;14.414;2022-12-18T05:06:00;-4.60;99.90
45761;DHT22;31471;51.040;14.414;2022-12-18T05:08:26;-4.70;99.90
45761;DHT22;31471;51.040;14.414;2022-12-18T05:11:12;-4.80;99.90
45761;DHT22;31471;51.040;14.414;2022-12-18T05:13:40;-4.80;99.90
45761;DHT22;31471;51.040;14.414;2022-12-18T05:16:06;-4.70;99.90
45761;DHT22;31471;51.040;14.414;2022-12-18T05:18:32;-4.70;99.90
45761;DHT22;31471;51.040;14.414;2022-12-18T05:20:57;-4.80;99.90
45761;DHT22;31471;51.040;14.414;2022-12-18T05:23:24;-4.70;99.90
45761;DHT22;31471;51.040;14.414;2022-12-18T05:25:53;-4.60;99.90
45761;DHT22;31471;51.040;14.414;2022-12-18T05:28:19;-4.60;99.90
45761;DHT22;31471;51.040;14.414;2022-12-18T05:30:49;-4.80;99.90
45761;DHT22;31471;51.040;14.414;2022-12-18T05:33:15;-4.70;99.90
45761;DHT22;31471;51.040;14.414;2022-12-18T05:35:40;-4.70;99.90
45761;DHT22;31471;51.040;14.414;2022-12-18T05:38:06;-4.70;99.90
45761;DHT22;31471;51.040;14.414;2022-12-18T05:40:31;-4.50;99.90
45761;DHT22;31471;51.040;14.414;2022-12-18T05:42:57;-4.40;99.90
45761;DHT22;31471;51.040;14.414;2022-12-18T05:45:22;-4.40;99.90
45761;DHT22;31471;51.040;14.414;2022-12-18T05:47:48;-4.50;99.90
45761;DHT22;31471;51.040;14.414;2022-12-18T05:50:13;-4.70;99.90
45761;DHT22;31471;51.040;14.414;2022-12-18T05:52:39;-4.70;99.90
45761;DHT22;31471;51.040;14.414;2022-12-18T05:55:04;-4.70;99.90
45761;DHT22;31471;51.040;14.414;2022-12-18T05:57:30;-4.80;99.90
45761;DHT22;31471;51.040;14.414;2022-12-18T05:59:55;-4.70;99.90
45761;DHT22;31471;51.040;14.414;2022-12-18T06:02:21;-4.70;99.90
45761;DHT22;31471;51.040;14.414;2022-12-18T06:04:46;-4.60;99.90
45761;DHT22;31471;51.040;14.414;2022-12-18T06:07:12;-4.50;99.90
45761;DHT22;31471;51.040;14.414;2022-12-18T06:09:38;-4.60;99.90
45761;DHT22;31471;51.040;14.414;2022-12-18T06:12:03;-4.50;99.90
45761;DHT22;31471;51.040;14.414;2022-12-18T06:14:29;-4.50;99.90
45761;DHT22;31471;51.040;14.414;2022-12-18T06:16:54;-4.40;99.90
45761;DHT22;31471;51.040;14.414;2022-12-18T06:19:20;-4.40;99.90
45761;DHT22;31471;51.040;14.414;2022-12-18T06:21:46;-4.40;99.90
45761;DHT22;31471;51.040;14.414;2022-12-18T06:24:11;-4.40;99.90
45761;DHT22;31471;51.040;14.414;2022-12-18T06:26:37;-4.50;99.90
45761;DHT22;31471;51.040;14.414;2022-12-18T06:29:04;-4.50;99.90
45761;DHT22;31471;51.040;14.414;2022-12-18T06:31:30;-4.50;99.90
45761;DHT22;31471;51.040;14.414;2022-12-18T06:33:55;-4.40;99.90
45761;DHT22;31471;51.040;14.414;2022-12-18T06:36:21;-4.60;99.90
45761;DHT22;31471;51.040;14.414;2022-12-18T06:38:46;-4.60;99.90
45761;DHT22;31471;51.040;14.414;2022-12-18T06:41:13;-4.60;99.90
45761;DHT22;31471;51.040;14.414;2022-12-18T06:43:39;-4.70;99.90
45761;DHT22;31471;51.040;14.414;2022-12-18T06:46:05;-4.80;99.90
45761;DHT22;31471;51.040;14.414;2022-12-18T06:48:31;-4.80;99.90
45761;DHT22;31471;51.040;14.414;2022-12-18T06:50:57;-5.00;99.90
45761;DHT22;31471;51.040;14.414;2022-12-18T06:53:22;-4.90;99.90
45761;DHT22;31471;51.040;14.414;2022-12-18T06:55:48;-5.10;99.90
45761;DHT22;31471;51.040;14.414;2022-12-18T06:58:14;-4.90;99.90
45761;DHT22;31471;51.040;14.414;2022-12-18T07:00:39;-4.80;99.90
45761;DHT22;31471;51.040;14.414;2022-12-18T07:03:05;-4.80;99.90
45761;DHT22;31471;51.040;14.414;2022-12-18T07:05:30;-4.80;99.90
45761;DHT22;31471;51.040;14.414;2022-12-18T07:07:56;-4.80;99.90
45761;DHT22;31471;51.040;14.414;2022-12-18T07:10:21;-4.80;99.90
45761;DHT22;31471;51.040;14.414;2022-12-18T07:12:47;-4.70;99.90
45761;DHT22;31471;51.040;14.414;2022-12-18T07:15:13;-4.60;99.90
45761;DHT22;31471;51.040;14.414;2022-12-18T07:17:38;-4.60;99.90
45761;DHT22;31471;51.040;14.414;2022-12-18T07:20:04;-4.60;99.90
45761;DHT22;31471;51.040;14.414;2022-12-18T07:22:29;-4.70;99.90
45761;DHT22;31471;51.040;14.414;2022-12-18T07:24:55;-4.60;99.90
45761;DHT22;31471;51.040;14.414;2022-12-18T07:27:21;-4.50;99.90
45761;DHT22;31471;51.040;14.414;2022-12-18T07:29:46;-4.40;99.90
45761;DHT22;31471;51.040;14.414;2022-12-18T07:32:12;-4.30;99.90
45761;DHT22;31471;51.040;14.414;2022-12-18T07:34:37;-4.30;99.90
45761;DHT22;31471;51.040;14.414;2022-12-18T07:37:03;-4.40;99.90
45761;DHT22;31471;51.040;14.414;2022-12-18T07:39:29;-4.30;99.90
45761;DHT22;31471;51.040;14.414;2022-12-18T07:41:54;-4.40;99.90
45761;DHT22;31471;51.040;14.414;2022-12-18T07:44:39;-4.40;99.90
45761;DHT22;31471;51.040;14.414;2022-12-18T07:47:04;-4.30;99.90
45761;DHT22;31471;51.040;14.414;2022-12-18T07:49:30;-4.40;99.90
45761;DHT22;31471;51.040;14.414;2022-12-18T07:51:55;-4.30;99.90
45761;DHT22;31471;51.040;14.414;2022-12-18T07:54:22;-4.30;99.90
45761;DHT22;31471;51.040;14.414;2022-12-18T07:56:48;-4.20;99.90
45761;DHT22;31471;51.040;14.414;2022-12-18T07:59:13;-4.20;99.90
45761;DHT22;31471;51.040;14.414;2022-12-18T08:01:39;-4.10;99.90
45761;DHT22;31471;51.040;14.414;2022-12-18T08:04:04;-4.20;99.90
45761;DHT22;31471;51.040;14.414;2022-12-18T08:06:30;-4.10;99.90
45761;DHT22;31471;51.040;14.414;2022-12-18T08:08:56;-4.10;99.90
45761;DHT22;31471;51.040;14.414;2022-12-18T08:11:22;-4.00;99.90
45761;DHT22;31471;51.040;14.414;2022-12-18T08:13:48;-3.80;99.90
45761;DHT22;31471;51.040;14.414;2022-12-18T08:16:13;-3.70;99.90
45761;DHT22;31471;51.040;14.414;2022-12-18T08:18:39;-3.70;99.90
45761;DHT22;31471;51.040;14.414;2022-12-18T08:21:11;-3.60;99.90
45761;DHT22;31471;51.040;14.414;2022-12-18T08:23:37;-3.50;99.90
45761;DHT22;31471;51.040;14.414;2022-12-18T08:26:02;-3.50;99.90
45761;DHT22;31471;51.040;14.414;2022-12-18T08:28:28;-3.50;99.90
45761;DHT22;31471;51.040;14.414;2022-12-18T08:30:53;-3.70;99.90
45761;DHT22;31471;51.040;14.414;2022-12-18T08:33:19;-3.90;99.90
45761;DHT22;31471;51.040;14.414;2022-12-18T08:35:44;-3.80;99.90
45761;DHT22;31471;51.040;14.414;2022-12-18T08:38:10;-3.90;99.90
45761;DHT22;31471;51.040;14.414;2022-12-18T08:40:35;-3.80;99.90
45761;DHT22;31471;51.040;14.414;2022-12-18T08:43:01;-3.70;99.90
45761;DHT22;31471;51.040;14.414;2022-12-18T08:45:45;-3.80;99.90
45761;DHT22;31471;51.040;14.414;2022-12-18T08:48:11;-3.90;99.90
45761;DHT22;31471;51.040;14.414;2022-12-18T08:50:36;-3.80;99.90
45761;DHT22;31471;51.040;14.414;2022-12-18T08:53:02;-3.50;99.90
45761;DHT22;31471;51.040;14.414;2022-12-18T08:55:28;-3.40;99.90
45761;DHT22;31471;51.040;14.414;2022-12-18T08:57:53;-3.60;99.90
45761;DHT22;31471;51.040;14.414;2022-12-18T09:00:19;-3.60;99.90
45761;DHT22;31471;51.040;14.414;2022-12-18T09:02:45;-3.60;99.90
45761;DHT22;31471;51.040;14.414;2022-12-18T09:05:11;-3.70;99.90
45761;DHT22;31471;51.040;14.414;2022-12-18T09:07:36;-3.90;99.90
45761;DHT22;31471;51.040;14.414;2022-12-18T09:10:02;-4.20;99.90
45761;DHT22;31471;51.040;14.414;2022-12-18T09:12:27;-4.20;99.90
45761;DHT22;31471;51.040;14.414;2022-12-18T09:14:53;-4.10;99.90
45761;DHT22;31471;51.040;14.414;2022-12-18T09:17:18;-4.00;99.90
45761;DHT22;31471;51.040;14.414;2022-12-18T09:19:44;-4.00;99.90
45761;DHT22;31471;51.040;14.414;2022-12-18T09:22:09;-4.30;99.90
45761;DHT22;31471;51.040;14.414;2022-12-18T09:24:35;-4.20;99.90
45761;DHT22;31471;51.040;14.414;2022-12-18T09:27:01;-4.30;99.90
45761;DHT22;31471;51.040;14.414;2022-12-18T09:29:26;-4.40;99.90
45761;DHT22;31471;51.040;14.414;2022-12-18T09:31:52;-4.30;99.90
45761;DHT22;31471;51.040;14.414;2022-12-18T09:34:17;-4.20;99.90
45761;DHT22;31471;51.040;14.414;2022-12-18T09:36:43;-4.10;99.90
45761;DHT22;31471;51.040;14.414;2022-12-18T09:39:08;-4.10;99.90
45761;DHT22;31471;51.040;14.414;2022-12-18T09:44:17;-4.00;99.90
45761;DHT22;31471;51.040;14.414;2022-12-18T09:46:46;-4.10;99.90
45761;DHT22;31471;51.040;14.414;2022-12-18T09:49:14;-3.90;99.90
45761;DHT22;31471;51.040;14.414;2022-12-18T09:51:49;-3.80;99.90
45761;DHT22;31471;51.040;14.414;2022-12-18T09:54:23;-3.60;99.90
45761;DHT22;31471;51.040;14.414;2022-12-18T09:56:50;-3.60;99.90
45761;DHT22;31471;51.040;14.414;2022-12-18T10:02:11;-3.70;99.90
45761;DHT22;31471;51.040;14.414;2022-12-18T10:04:38;-3.60;99.90
45761;DHT22;31471;51.040;14.414;2022-12-18T10:07:06;-3.60;99.90
45761;DHT22;31471;51.040;14.414;2022-12-18T10:22:21;-2.80;99.90
45761;DHT22;31471;51.040;14.414;2022-12-18T10:27:46;-3.00;99.90
45761;DHT22;31471;51.040;14.414;2022-12-18T10:30:13;-3.00;99.90
45761;DHT22;31471;51.040;14.414;2022-12-18T10:32:40;-3.10;99.90
45761;DHT22;31471;51.040;14.414;2022-12-18T10:35:08;-3.20;99.90
45761;DHT22;31471;51.040;14.414;2022-12-18T10:37:36;-3.30;99.90
45761;DHT22;31471;51.040;14.414;2022-12-18T10:40:22;-3.30;99.90
45761;DHT22;31471;51.040;14.414;2022-12-18T10:43:03;-2.90;99.90
45761;DHT22;31471;51.040;14.414;2022-12-18T10:45:28;-2.80;99.90
45761;DHT22;31471;51.040;14.414;2022-12-18T10:47:54;-2.60;99.90
45761;DHT22;31471;51.040;14.414;2022-12-18T10:50:27;-2.70;99.90
45761;DHT22;31471;51.040;14.414;2022-12-18T10:52:54;-2.80;99.90
45761;DHT22;31471;51.040;14.414;2022-12-18T10:55:20;-2.80;99.90
45761;DHT22;31471;51.040;14.414;2022-12-18T10:57:46;-2.80;99.90
45761;DHT22;31471;51.040;14.414;2022-12-18T11:00:45;-3.00;99.90
45761;DHT22;31471;51.040;14.414;2022-12-18T11:03:07;-3.10;99.90
45761;DHT22;31471;51.040;14.414;2022-12-18T11:05:49;-3.00;99.90
45761;DHT22;31471;51.040;14.414;2022-12-18T11:08:26;-2.90;99.90
45761;DHT22;31471;51.040;14.414;2022-12-18T11:10:51;-2.70;99.90
45761;DHT22;31471;51.040;14.414;2022-12-18T11:13:17;-2.70;99.90
45761;DHT22;31471;51.040;14.414;2022-12-18T11:15:43;-2.60;99.90
45761;DHT22;31471;51.040;14.414;2022-12-18T11:18:20;-2.90;99.90
45761;DHT22;31471;51.040;14.414;2022-12-18T11:20:51;-2.70;99.90
45761;DHT22;31471;51.040;14.414;2022-12-18T11:23:18;-3.10;99.90
45761;DHT22;31471;51.040;14.414;2022-12-18T11:25:50;-3.40;99.90
45761;DHT22;31471;51.040;14.414;2022-12-18T11:33:40;-3.30;99.90
45761;DHT22;31471;51.040;14.414;2022-12-18T11:36:07;-3.20;99.90
45761;DHT22;31471;51.040;14.414;2022-12-18T11:41:04;-3.00;99.90
45761;DHT22;31471;51.040;14.414;2022-12-18T11:43:32;-3.00;99.90
45761;DHT22;31471;51.040;14.414;2022-12-18T11:46:01;-3.10;99.90
45761;DHT22;31471;51.040;14.414;2022-12-18T11:48:35;-3.10;99.90
45761;DHT22;31471;51.040;14.414;2022-12-18T11:51:03;-3.40;99.90
45761;DHT22;31471;51.040;14.414;2022-12-18T11:53:29;-3.60;99.90
45761;DHT22;31471;51.040;14.414;2022-12-18T11:56:11;-3.60;99.90
45761;DHT22;31471;51.040;14.414;2022-12-18T11:58:47;-3.70;99.90
45761;DHT22;31471;51.040;14.414;2022-12-18T12:01:15;-3.70;99.90
45761;DHT22;31471;51.040;14.414;2022-12-18T12:04:03;-3.70;99.90
45761;DHT22;31471;51.040;14.414;2022-12-18T12:06:37;-3.90;99.90
45761;DHT22;31471;51.040;14.414;2022-12-18T12:09:08;-3.90;99.90
45761;DHT22;31471;51.040;14.414;2022-12-18T12:11:50;-3.80;99.90
45761;DHT22;31471;51.040;14.414;2022-12-18T12:14:27;-3.80;99.90
45761;DHT22;31471;51.040;14.414;2022-12-18T12:19:29;-4.00;99.90
45761;DHT22;31471;51.040;14.414;2022-12-18T12:22:03;-3.90;99.90
45761;DHT22;31471;51.040;14.414;2022-12-18T12:30:11;-3.90;99.90
45761;DHT22;31471;51.040;14.414;2022-12-18T12:38:10;-4.10;99.90
45761;DHT22;31471;51.040;14.414;2022-12-18T12:40:39;-4.10;99.90
45761;DHT22;31471;51.040;14.414;2022-12-18T12:45:48;-3.80;99.90
45761;DHT22;31471;51.040;14.414;2022-12-18T12:48:36;-3.80;99.90
45761;DHT22;31471;51.040;14.414;2022-12-18T12:51:00;-3.70;99.90
45761;DHT22;31471;51.040;14.414;2022-12-18T12:53:29;-3.80;99.90
45761;DHT22;31471;51.040;14.414;2022-12-18T12:55:56;-3.90;99.90
45761;DHT22;31471;51.040;14.414;2022-12-18T12:58:26;-3.90;99.90
45761;DHT22;31471;51.040;14.414;2022-12-18T13:00:55;-4.10;99.90
45761;DHT22;31471;51.040;14.414;2022-12-18T13:03:34;-4.20;99.90
45761;DHT22;31471;51.040;14.414;2022-12-18T13:06:08;-4.10;99.90
45761;DHT22;31471;51.040;14.414;2022-12-18T13:14:32;-3.60;99.90
45761;DHT22;31471;51.040;14.414;2022-12-18T13:17:24;-3.40;99.90
45761;DHT22;31471;51.040;14.414;2022-12-18T13:20:02;-3.60;99.90
45761;DHT22;31471;51.040;14.414;2022-12-18T13:22:30;-3.80;99.90
45761;DHT22;31471;51.040;14.414;2022-12-18T13:24:57;-3.80;99.90
45761;DHT22;31471;51.040;14.414;2022-12-18T13:33:12;-4.00;99.90
45761;DHT22;31471;51.040;14.414;2022-12-18T13:35:37;-4.00;99.90
45761;DHT22;31471;51.040;14.414;2022-12-18T13:38:16;-3.90;99.90
45761;DHT22;31471;51.040;14.414;2022-12-18T13:48:23;-4.10;99.90
45761;DHT22;31471;51.040;14.414;2022-12-18T13:50:55;-4.20;99.90
45761;DHT22;31471;51.040;14.414;2022-12-18T13:53:23;-4.20;99.90
45761;DHT22;31471;51.040;14.414;2022-12-18T13:55:50;-4.30;99.90
45761;DHT22;31471;51.040;14.414;2022-12-18T13:58:16;-4.40;99.90
45761;DHT22;31471;51.040;14.414;2022-12-18T14:00:42;-4.40;99.90
45761;DHT22;31471;51.040;14.414;2022-12-18T14:03:21;-4.20;99.90
45761;DHT22;31471;51.040;14.414;2022-12-18T14:05:52;-4.30;99.90
45761;DHT22;31471;51.040;14.414;2022-12-18T14:08:18;-4.10;99.90
45761;DHT22;31471;51.040;14.414;2022-12-18T14:10:45;-4.10;99.90
45761;DHT22;31471;51.040;14.414;2022-12-18T14:13:13;-4.00;99.90
45761;DHT22;31471;51.040;14.414;2022-12-18T14:15:41;-4.10;99.90
45761;DHT22;31471;51.040;14.414;2022-12-18T14:20:39;-4.30;99.90
45761;DHT22;31471;51.040;14.414;2022-12-18T14:23:24;-4.20;99.90
45761;DHT22;31471;51.040;14.414;2022-12-18T14:25:49;-4.30;99.90
45761;DHT22;31471;51.040;14.414;2022-12-18T14:28:15;-4.40;99.90
45761;DHT22;31471;51.040;14.414;2022-12-18T14:30:42;-4.40;99.90
45761;DHT22;31471;51.040;14.414;2022-12-18T14:35:35;-4.40;99.90
45761;DHT22;31471;51.040;14.414;2022-12-18T14:38:16;-4.50;99.90
45761;DHT22;31471;51.040;14.414;2022-12-18T14:40:44;-4.50;99.90
45761;DHT22;31471;51.040;14.414;2022-12-18T14:43:10;-4.60;99.90
45761;DHT22;31471;51.040;14.414;2022-12-18T14:45:36;-4.60;99.90
45761;DHT22;31471;51.040;14.414;2022-12-18T14:48:06;-4.60;99.90
45761;DHT22;31471;51.040;14.414;2022-12-18T14:50:32;-4.60;99.90
45761;DHT22;31471;51.040;14.414;2022-12-18T14:52:57;-4.60;99.90
45761;DHT22;31471;51.040;14.414;2022-12-18T14:55:23;-4.60;99.90
45761;DHT22;31471;51.040;14.414;2022-12-18T14:57:49;-4.70;99.90
45761;DHT22;31471;51.040;14.414;2022-12-18T15:00:17;-4.60;99.90
45761;DHT22;31471;51.040;14.414;2022-12-18T15:02:44;-4.60;99.90
45761;DHT22;31471;51.040;14.414;2022-12-18T15:05:30;-4.60;99.90
45761;DHT22;31471;51.040;14.414;2022-12-18T15:07:56;-4.50;99.90
45761;DHT22;31471;51.040;14.414;2022-12-18T15:10:29;-4.50;99.90
45761;DHT22;31471;51.040;14.414;2022-12-18T15:17:59;-4.60;99.90
45761;DHT22;31471;51.040;14.414;2022-12-18T15:20:25;-4.60;99.90
45761;DHT22;31471;51.040;14.414;2022-12-18T15:22:50;-4.60;99.90
45761;DHT22;31471;51.040;14.414;2022-12-18T15:27:51;-4.50;99.90
45761;DHT22;31471;51.040;14.414;2022-12-18T15:30:18;-4.50;99.90
45761;DHT22;31471;51.040;14.414;2022-12-18T15:32:44;-4.50;99.90
45761;DHT22;31471;51.040;14.414;2022-12-18T15:37:38;-4.50;99.90
45761;DHT22;31471;51.040;14.414;2022-12-18T15:40:05;-4.60;99.90
45761;DHT22;31471;51.040;14.414;2022-12-18T15:42:31;-4.60;99.90
45761;DHT22;31471;51.040;14.414;2022-12-18T15:45:15;-4.40;99.90
45761;DHT22;31471;51.040;14.414;2022-12-18T15:47:41;-4.50;99.90
45761;DHT22;31471;51.040;14.414;2022-12-18T15:50:09;-4.50;99.90
45761;DHT22;31471;51.040;14.414;2022-12-18T15:52:39;-4.60;99.90
45761;DHT22;31471;51.040;14.414;2022-12-18T15:55:08;-4.60;99.90
45761;DHT22;31471;51.040;14.414;2022-12-18T15:57:54;-4.50;99.90
45761;DHT22;31471;51.040;14.414;2022-12-18T16:00:19;-4.60;99.90
45761;DHT22;31471;51.040;14.414;2022-12-18T16:02:45;-4.60;99.90
45761;DHT22;31471;51.040;14.414;2022-12-18T16:05:14;-4.40;99.90
45761;DHT22;31471;51.040;14.414;2022-12-18T16:07:39;-4.40;99.90
45761;DHT22;31471;51.040;14.414;2022-12-18T16:10:05;-4.40;99.90
45761;DHT22;31471;51.040;14.414;2022-12-18T16:12:31;-4.50;99.90
45761;DHT22;31471;51.040;14.414;2022-12-18T16:14:56;-4.40;99.90
45761;DHT22;31471;51.040;14.414;2022-12-18T16:17:22;-4.40;99.90
45761;DHT22;31471;51.040;14.414;2022-12-18T16:19:47;-4.60;99.90
45761;DHT22;31471;51.040;14.414;2022-12-18T16:22:23;-4.50;99.90
45761;DHT22;31471;51.040;14.414;2022-12-18T16:24:49;-4.50;99.90
45761;DHT22;31471;51.040;14.414;2022-12-18T16:27:15;-4.50;99.90
45761;DHT22;31471;51.040;14.414;2022-12-18T16:29:41;-4.60;99.90
45761;DHT22;31471;51.040;14.414;2022-12-18T16:32:06;-4.60;99.90
45761;DHT22;31471;51.040;14.414;2022-12-18T16:34:33;-4.60;99.90
45761;DHT22;31471;51.040;14.414;2022-12-18T16:37:00;-4.70;99.90
45761;DHT22;31471;51.040;14.414;2022-12-18T16:39:26;-4.70;99.90
45761;DHT22;31471;51.040;14.414;2022-12-18T16:41:51;-4.80;99.90
45761;DHT22;31471;51.040;14.414;2022-12-18T16:44:17;-4.70;99.90
45761;DHT22;31471;51.040;14.414;2022-12-18T16:46:43;-4.90;99.90
45761;DHT22;31471;51.040;14.414;2022-12-18T16:49:13;-5.00;99.90
45761;DHT22;31471;51.040;14.414;2022-12-18T16:51:40;-5.10;99.90
45761;DHT22;31471;51.040;14.414;2022-12-18T16:54:05;-5.20;99.90
45761;DHT22;31471;51.040;14.414;2022-12-18T16:56:31;-5.20;99.90
45761;DHT22;31471;51.040;14.414;2022-12-18T16:58:58;-5.20;99.90
45761;DHT22;31471;51.040;14.414;2022-12-18T17:01:24;-5.20;99.90
45761;DHT22;31471;51.040;14.414;2022-12-18T17:03:53;-5.20;99.90